createdAt,value
2023-02-05T00:01:35.288Z,38.35
2023-02-05T00:04:02.284Z,38.65
2023-02-05T00:06:29.250Z,35.75
2023-02-05T00:08:57.209Z,33.90
2023-02-05T00:11:24.960Z,41.40
2023-02-05T00:13:52.086Z,35.38
2023-02-05T00:16:20.619Z,34.50
2023-02-05T00:18:47.741Z,45.40
2023-02-05T00:21:15.207Z,34.45
2023-02-05T00:23:42.695Z,36.03
2023-02-05T00:26:10.693Z,36.80
2023-02-05T00:28:38.288Z,38.38
2023-02-05T00:31:09.590Z,37.83
2023-02-05T00:33:36.807Z,38.83
2023-02-05T00:36:03.974Z,34.80
2023-02-05T00:38:31.092Z,41.22
2023-02-05T00:40:58.092Z,30.30
2023-02-05T00:43:25.240Z,34.92
2023-02-05T00:45:52.310Z,32.95
2023-02-05T00:48:19.327Z,43.17
2023-02-05T00:50:48.006Z,34.13
2023-02-05T00:53:15.094Z,39.92
2023-02-05T00:55:42.301Z,39.03
2023-02-05T00:58:09.269Z,31.40
2023-02-05T01:00:36.414Z,39.47
2023-02-05T01:03:03.399Z,28.13
2023-02-05T01:05:30.718Z,39.70
2023-02-05T01:07:58.035Z,36.08
2023-02-05T01:10:25.087Z,36.92
2023-02-05T01:12:52.204Z,36.85
2023-02-05T01:15:19.647Z,42.83
2023-02-05T01:17:46.738Z,37.58
2023-02-05T01:20:14.247Z,48.10
2023-02-05T01:22:41.379Z,41.08
2023-02-05T01:25:11.093Z,41.00
2023-02-05T01:27:38.452Z,34.90
2023-02-05T01:30:06.467Z,31.38
2023-02-05T01:32:43.836Z,43.53
2023-02-05T01:35:10.876Z,40.85
2023-02-05T01:37:38.016Z,33.05
2023-02-05T01:40:05.423Z,51.03
2023-02-05T01:42:33.726Z,43.42
2023-02-05T01:45:19.295Z,54.80
2023-02-05T01:47:46.328Z,38.50
2023-02-05T01:50:13.487Z,44.08
2023-02-05T01:52:40.616Z,35.78
2023-02-05T01:55:08.475Z,49.22
2023-02-05T01:57:37.304Z,42.83
2023-02-05T02:00:05.570Z,37.72
2023-02-05T02:02:32.848Z,41.33
2023-02-05T02:05:02.321Z,43.35
2023-02-05T02:07:29.328Z,30.98
2023-02-05T02:09:56.386Z,46.25
2023-02-05T02:12:24.984Z,45.38
2023-02-05T02:15:03.391Z,31.77
2023-02-05T02:17:33.301Z,39.95
2023-02-05T02:20:02.025Z,39.80
2023-02-05T02:22:44.319Z,39.03
2023-02-05T02:25:29.906Z,43.92
2023-02-05T02:28:08.276Z,38.55
2023-02-05T02:30:43.538Z,47.53
2023-02-05T02:33:23.454Z,43.22
2023-02-05T02:35:54.738Z,35.20
2023-02-05T02:38:21.859Z,31.35
2023-02-05T02:40:56.235Z,43.63
2023-02-05T02:43:26.024Z,51.25
2023-02-05T02:45:59.720Z,44.08
2023-02-05T02:48:28.815Z,43.10
2023-02-05T02:51:05.651Z,41.38
2023-02-05T02:53:54.511Z,56.53
2023-02-05T02:56:22.378Z,38.90
2023-02-05T02:58:51.129Z,37.65
2023-02-05T03:01:20.998Z,44.35
2023-02-05T03:03:53.025Z,45.58
2023-02-05T03:06:21.034Z,54.35
2023-02-05T03:08:48.008Z,41.15
2023-02-05T03:11:15.514Z,35.08
2023-02-05T03:13:43.884Z,51.63
2023-02-05T03:16:11.380Z,35.15
2023-02-05T03:18:39.686Z,44.67
2023-02-05T03:21:12.433Z,42.50
2023-02-05T03:23:39.676Z,33.60
2023-02-05T03:26:06.656Z,41.35
2023-02-05T03:28:33.697Z,52.70
2023-02-05T03:31:00.759Z,37.97
2023-02-05T03:33:47.827Z,55.45
2023-02-05T03:36:25.959Z,41.08
2023-02-05T03:39:04.955Z,38.08
2023-02-05T03:41:51.914Z,41.55
2023-02-05T03:44:26.443Z,38.30
2023-02-05T03:47:00.160Z,44.63
2023-02-05T03:49:39.871Z,41.65
2023-02-05T03:52:09.936Z,48.60
2023-02-05T03:54:54.996Z,40.08
2023-02-05T03:57:26.835Z,52.50
2023-02-05T03:59:56.587Z,48.13
2023-02-05T04:02:23.942Z,39.50
2023-02-05T04:04:51.031Z,43.53
2023-02-05T04:07:18.072Z,46.58
2023-02-05T04:09:45.053Z,39.13
2023-02-05T04:12:12.058Z,41.97
2023-02-05T04:14:39.130Z,63.33
2023-02-05T04:17:07.519Z,46.72
2023-02-05T04:19:34.631Z,43.22
2023-02-05T04:22:03.983Z,54.75
2023-02-05T04:24:30.981Z,40.78
2023-02-05T04:26:58.209Z,54.85
2023-02-05T04:29:25.283Z,56.38
2023-02-05T04:31:52.380Z,49.08
2023-02-05T04:34:19.442Z,53.13
2023-02-05T04:36:46.822Z,46.80
2023-02-05T04:39:13.915Z,51.45
2023-02-05T04:41:41.080Z,44.55
2023-02-05T04:44:08.193Z,40.47
2023-02-05T04:46:35.292Z,44.85
2023-02-05T04:49:02.385Z,51.88
2023-02-05T04:51:29.403Z,59.95
2023-02-05T04:53:56.463Z,42.90
2023-02-05T04:56:25.759Z,54.33
2023-02-05T04:58:52.863Z,48.70
2023-02-05T05:01:21.620Z,47.67
2023-02-05T05:03:49.228Z,49.33
2023-02-05T05:06:17.252Z,54.38
2023-02-05T05:08:45.528Z,37.42
2023-02-05T05:11:14.266Z,53.30
2023-02-05T05:13:41.669Z,48.20
2023-02-05T05:16:08.934Z,48.95
2023-02-05T05:18:36.088Z,45.00
2023-02-05T05:21:04.042Z,45.40
2023-02-05T05:23:32.569Z,49.83
2023-02-05T05:25:59.591Z,53.35
2023-02-05T05:28:27.580Z,51.45
2023-02-05T05:30:54.571Z,55.80
2023-02-05T05:33:23.844Z,53.92
2023-02-05T05:35:50.866Z,61.30
2023-02-05T05:38:17.856Z,53.78
2023-02-05T05:41:03.588Z,54.63
2023-02-05T05:43:49.003Z,44.65
2023-02-05T05:46:22.536Z,44.00
2023-02-05T05:48:56.996Z,51.92
2023-02-05T05:51:25.006Z,50.45
2023-02-05T05:53:52.345Z,48.28
2023-02-05T05:56:19.376Z,48.08
2023-02-05T05:58:49.159Z,50.42
2023-02-05T06:01:17.179Z,43.15
2023-02-05T06:03:44.425Z,51.58
2023-02-05T06:06:12.701Z,44.00
2023-02-05T06:08:39.745Z,48.13
2023-02-05T06:11:06.792Z,48.88
2023-02-05T06:13:34.815Z,48.63
2023-02-05T06:16:01.812Z,53.17
2023-02-05T06:18:30.127Z,52.05
2023-02-05T06:20:57.120Z,49.08
2023-02-05T06:23:24.247Z,42.47
2023-02-05T06:25:51.306Z,54.78
2023-02-05T06:28:20.808Z,53.70
2023-02-05T06:30:47.864Z,50.70
2023-02-05T06:33:14.954Z,48.60
2023-02-05T06:35:42.372Z,49.13
2023-02-05T06:38:09.793Z,60.70
2023-02-05T06:40:36.886Z,55.83
2023-02-05T06:43:04.041Z,54.13
2023-02-05T06:45:31.028Z,45.47
2023-02-05T06:48:00.533Z,52.85
2023-02-05T06:50:27.595Z,49.35
2023-02-05T06:52:54.631Z,50.97
2023-02-05T06:55:21.707Z,57.25
2023-02-05T06:57:48.691Z,62.25
2023-02-05T07:00:16.000Z,60.13
2023-02-05T07:02:43.103Z,56.90
2023-02-05T07:05:10.384Z,55.55
2023-02-05T07:07:37.362Z,60.95
2023-02-05T07:10:09.939Z,57.15
2023-02-05T07:12:38.080Z,61.10
2023-02-05T07:15:05.413Z,67.32
2023-02-05T07:17:32.453Z,67.25
2023-02-05T07:19:59.488Z,64.57
2023-02-05T07:22:26.550Z,66.78
2023-02-05T07:24:53.578Z,63.38
2023-02-05T07:27:20.590Z,64.40
2023-02-05T07:29:47.827Z,62.10
2023-02-05T07:32:14.975Z,59.13
2023-02-05T07:34:42.224Z,63.03
2023-02-05T07:37:09.259Z,65.07
2023-02-05T07:39:36.231Z,57.17
2023-02-05T07:42:03.306Z,58.55
2023-02-05T07:44:30.461Z,58.35
2023-02-05T07:46:57.481Z,62.28
2023-02-05T07:49:27.188Z,57.28
2023-02-05T07:51:54.184Z,63.43
2023-02-05T07:54:21.227Z,58.47
2023-02-05T07:56:48.281Z,60.20
2023-02-05T07:59:17.747Z,65.43
2023-02-05T08:01:44.851Z,61.83
2023-02-05T08:04:11.867Z,57.78
2023-02-05T08:06:38.867Z,59.53
2023-02-05T08:09:05.827Z,55.35
2023-02-05T08:11:32.871Z,49.72
2023-02-05T08:14:07.757Z,57.22
2023-02-05T08:16:34.797Z,45.33
2023-02-05T08:19:01.799Z,46.88
2023-02-05T08:21:28.796Z,46.53
2023-02-05T08:23:58.359Z,44.80
2023-02-05T08:26:25.390Z,55.95
2023-02-05T08:28:52.876Z,56.78
2023-02-05T08:31:20.162Z,58.22
2023-02-05T08:33:47.982Z,59.53
2023-02-05T08:36:15.002Z,66.97
2023-02-05T08:38:42.008Z,61.92
2023-02-05T08:41:12.991Z,57.35
2023-02-05T08:43:44.486Z,60.42
2023-02-05T08:46:12.285Z,64.05
2023-02-05T08:48:39.402Z,61.20
2023-02-05T08:51:09.263Z,64.38
2023-02-05T08:53:36.264Z,61.05
2023-02-05T08:56:05.274Z,56.70
2023-02-05T08:58:34.731Z,59.00
2023-02-05T09:01:05.788Z,64.35
2023-02-05T09:03:33.133Z,57.55
2023-02-05T09:06:03.093Z,60.97
2023-02-05T09:08:31.294Z,51.45
2023-02-05T09:10:58.323Z,46.50
2023-02-05T09:13:25.736Z,45.47
2023-02-05T09:15:52.848Z,45.00
2023-02-05T09:18:20.207Z,46.72
2023-02-05T09:20:49.710Z,42.17
2023-02-05T09:23:17.859Z,50.80
2023-02-05T09:25:52.259Z,38.45
2023-02-05T09:28:19.315Z,28.63
2023-02-05T09:30:46.907Z,31.58
2023-02-05T09:33:17.263Z,29.58
2023-02-05T09:35:44.367Z,33.10
2023-02-05T09:38:17.657Z,38.42
2023-02-05T09:40:59.225Z,32.13
2023-02-05T09:46:33.249Z,18.80
2023-02-05T09:49:19.051Z,22.23
2023-02-05T09:51:47.888Z,14.13
2023-02-05T09:54:32.682Z,11.05
2023-02-05T09:57:04.295Z,14.85
2023-02-05T09:59:32.239Z,11.52
2023-02-05T10:02:00.426Z,15.10
2023-02-05T10:04:28.219Z,11.27
2023-02-05T10:07:11.443Z,6.57
2023-02-05T10:09:50.449Z,8.35
2023-02-05T10:12:27.051Z,12.77
2023-02-05T10:14:57.122Z,9.55
2023-02-05T10:17:39.141Z,13.20
2023-02-05T10:20:24.858Z,9.18
2023-02-05T10:22:58.794Z,12.07
2023-02-05T10:25:25.902Z,10.63
2023-02-05T10:27:55.638Z,9.60
2023-02-05T10:30:29.035Z,8.50
2023-02-05T10:32:56.810Z,11.50
2023-02-05T10:35:48.593Z,11.20
2023-02-05T10:38:25.141Z,11.73
2023-02-05T10:40:54.174Z,9.65
2023-02-05T10:43:21.152Z,10.13
2023-02-05T10:45:49.004Z,6.68
2023-02-05T10:48:24.537Z,11.77
2023-02-05T10:51:23.807Z,10.15
2023-02-05T10:53:53.258Z,7.30
2023-02-05T10:56:21.584Z,11.60
2023-02-05T10:58:52.464Z,6.07
2023-02-05T11:01:24.897Z,5.38
2023-02-05T11:03:57.025Z,8.25
2023-02-05T11:06:25.860Z,10.40
2023-02-05T11:08:52.971Z,6.45
2023-02-05T11:11:30.735Z,7.10
2023-02-05T11:14:01.531Z,7.03
2023-02-05T11:16:44.685Z,11.30
2023-02-05T11:19:24.132Z,4.00
2023-02-05T11:21:53.616Z,3.72
2023-02-05T11:24:29.467Z,16.13
2023-02-05T11:27:15.279Z,13.25
2023-02-05T11:29:42.958Z,10.32
2023-02-05T11:32:28.475Z,15.52
2023-02-05T11:35:08.772Z,9.50
2023-02-05T11:37:39.262Z,13.35
2023-02-05T11:40:06.537Z,11.65
2023-02-05T11:42:33.630Z,10.27
2023-02-05T11:45:02.832Z,16.83
2023-02-05T11:47:32.076Z,11.07
2023-02-05T11:49:59.657Z,12.23
2023-02-05T11:52:29.074Z,8.25
2023-02-05T11:54:56.534Z,10.98
2023-02-05T11:57:23.555Z,10.27
2023-02-05T11:59:58.064Z,6.78
2023-02-05T12:02:25.107Z,11.60
2023-02-05T12:04:55.851Z,11.00
2023-02-05T12:07:23.777Z,12.93
2023-02-05T12:09:55.465Z,12.75
2023-02-05T12:12:27.760Z,17.27
2023-02-05T12:15:10.042Z,12.73
2023-02-05T12:17:40.956Z,20.30
2023-02-05T12:20:10.762Z,12.15
2023-02-05T12:22:56.331Z,11.23
2023-02-05T12:25:23.428Z,14.93
2023-02-05T12:27:50.536Z,10.15
2023-02-05T12:30:30.808Z,21.17
2023-02-05T12:33:16.700Z,8.63
2023-02-05T12:35:56.835Z,13.95
2023-02-05T12:38:42.757Z,13.18
2023-02-05T12:41:15.885Z,15.88
2023-02-05T12:43:45.886Z,23.17
2023-02-05T12:46:21.507Z,11.48
2023-02-05T12:48:51.381Z,19.58
2023-02-05T12:51:36.776Z,16.30
2023-02-05T12:54:12.722Z,19.50
2023-02-05T12:56:53.386Z,15.13
2023-02-05T13:01:50.170Z,18.67
2023-02-05T13:04:40.179Z,17.00
2023-02-05T13:07:12.269Z,16.80
2023-02-05T13:09:44.340Z,16.23
2023-02-05T13:12:13.490Z,17.80
2023-02-05T13:14:42.756Z,24.35
2023-02-05T13:17:15.745Z,22.55
2023-02-05T13:19:48.664Z,11.82
2023-02-05T13:22:37.138Z,15.05
2023-02-05T13:25:38.195Z,17.55
2023-02-05T13:28:33.086Z,13.05
2023-02-05T13:31:00.767Z,10.00
2023-02-05T13:33:28.319Z,14.38
2023-02-05T13:36:02.294Z,17.88
2023-02-05T13:38:46.768Z,17.92
2023-02-05T13:41:19.858Z,8.43
2023-02-05T13:44:05.294Z,6.93
2023-02-05T13:46:46.757Z,10.35
2023-02-05T13:49:28.327Z,8.85
2023-02-05T13:52:04.815Z,11.10
2023-02-05T13:54:50.533Z,10.02
2023-02-05T13:57:32.753Z,11.00
2023-02-05T14:00:00.808Z,12.52
2023-02-05T14:02:30.654Z,12.45
2023-02-05T14:04:58.580Z,10.85
2023-02-05T14:07:28.291Z,13.65
2023-02-05T14:09:59.494Z,16.73
2023-02-05T14:12:31.383Z,19.30
2023-02-05T14:15:16.600Z,8.38
2023-02-05T14:17:43.664Z,12.07
2023-02-05T14:20:30.927Z,10.52
2023-02-05T14:23:00.858Z,14.00
2023-02-05T14:25:41.572Z,12.45
2023-02-05T14:30:48.081Z,10.30
2023-02-05T14:33:47.743Z,9.70
2023-02-05T14:36:24.991Z,12.30
2023-02-05T14:38:55.828Z,8.02
2023-02-05T14:41:25.106Z,11.30
2023-02-05T14:43:54.778Z,11.02
2023-02-05T14:46:24.614Z,10.33
2023-02-05T14:48:52.293Z,6.90
2023-02-05T14:51:33.131Z,6.90
2023-02-05T14:54:01.388Z,8.60
2023-02-05T14:56:33.728Z,11.77
2023-02-05T14:59:07.477Z,9.05
2023-02-05T15:01:34.503Z,6.25
2023-02-05T15:04:02.565Z,10.00
2023-02-05T15:06:30.690Z,6.70
2023-02-05T15:09:04.859Z,13.45
2023-02-05T15:11:57.770Z,9.98
2023-02-05T15:14:30.633Z,13.02
2023-02-05T15:17:06.544Z,10.15
2023-02-05T15:19:48.976Z,11.43
2023-02-05T15:22:36.619Z,14.27
2023-02-05T15:25:04.907Z,20.05
2023-02-05T15:27:37.882Z,11.02
2023-02-05T15:30:06.745Z,9.82
2023-02-05T15:32:37.001Z,14.02
2023-02-05T15:35:11.594Z,11.65
2023-02-05T15:37:49.750Z,9.43
2023-02-05T15:40:22.695Z,10.82
2023-02-05T15:42:55.586Z,10.52
2023-02-05T15:45:26.976Z,13.07
2023-02-05T15:48:00.239Z,9.98
2023-02-05T15:50:27.507Z,13.68
2023-02-05T15:52:54.544Z,9.15
2023-02-05T15:55:22.197Z,8.07
2023-02-05T15:57:49.562Z,10.07
2023-02-05T16:00:26.829Z,8.60
2023-02-05T16:02:58.083Z,13.57
2023-02-05T16:05:25.856Z,10.02
2023-02-05T16:07:58.096Z,10.07
2023-02-05T16:10:29.058Z,8.45
2023-02-05T16:13:15.466Z,9.45
2023-02-05T16:15:47.027Z,7.13
2023-02-05T16:18:17.495Z,12.55
2023-02-05T16:20:47.913Z,18.67
2023-02-05T16:23:24.004Z,7.45
2023-02-05T16:26:00.124Z,8.90
2023-02-05T16:28:27.062Z,14.18
2023-02-05T16:30:55.773Z,18.23
2023-02-05T16:33:34.800Z,11.57
2023-02-05T16:36:03.856Z,9.98
2023-02-05T16:38:31.054Z,14.02
2023-02-05T16:40:59.652Z,12.07
2023-02-05T16:43:37.329Z,8.48
2023-02-05T16:46:07.615Z,19.08
2023-02-05T16:48:36.799Z,14.35
2023-02-05T16:51:03.974Z,11.45
2023-02-05T16:53:32.126Z,16.13
2023-02-05T16:56:02.399Z,11.82
2023-02-05T16:58:36.930Z,10.93
2023-02-05T17:01:04.450Z,9.38
2023-02-05T17:03:41.579Z,19.38
2023-02-05T17:06:13.627Z,15.90
2023-02-05T17:08:40.931Z,16.35
2023-02-05T17:11:08.651Z,12.73
2023-02-05T17:13:43.554Z,19.45
2023-02-05T17:16:30.326Z,12.45
2023-02-05T17:18:58.861Z,16.63
2023-02-05T17:21:27.608Z,10.98
2023-02-05T17:23:56.997Z,14.30
2023-02-05T17:26:24.389Z,15.82
2023-02-05T17:29:03.451Z,10.07
2023-02-05T17:31:31.711Z,19.67
2023-02-05T17:33:59.262Z,22.25
2023-02-05T17:36:26.645Z,18.75
2023-02-05T17:38:54.095Z,11.38
2023-02-05T17:41:41.358Z,15.77
2023-02-05T17:44:10.569Z,20.33
2023-02-05T17:46:37.620Z,14.50
2023-02-05T17:49:04.668Z,17.33
2023-02-05T17:51:34.013Z,11.50
2023-02-05T17:54:01.400Z,23.85
2023-02-05T17:56:28.732Z,18.10
2023-02-05T17:58:55.783Z,18.92
2023-02-05T18:01:23.012Z,20.85
2023-02-05T18:03:50.062Z,17.67
2023-02-05T18:06:18.664Z,23.95
2023-02-05T18:08:45.758Z,13.05
2023-02-05T18:11:12.831Z,19.75
2023-02-05T18:13:39.875Z,11.77
2023-02-05T18:16:07.037Z,16.20
2023-02-05T18:18:36.382Z,17.15
2023-02-05T18:21:03.429Z,13.57
2023-02-05T18:23:30.464Z,16.15
2023-02-05T18:25:58.166Z,23.75
2023-02-05T18:28:25.522Z,22.52
2023-02-05T18:31:08.829Z,26.70
2023-02-05T18:33:36.099Z,20.42
2023-02-05T18:36:07.470Z,25.05
2023-02-05T18:38:37.825Z,11.75
2023-02-05T18:41:08.974Z,18.77
2023-02-05T18:43:36.843Z,23.63
2023-02-05T18:46:08.080Z,19.15
2023-02-05T18:48:35.238Z,21.90
2023-02-05T18:51:08.694Z,24.52
2023-02-05T18:53:35.838Z,26.30
2023-02-05T18:56:07.082Z,27.63
2023-02-05T18:58:34.360Z,27.58
2023-02-05T19:01:15.206Z,15.50
2023-02-05T19:03:42.726Z,19.60
2023-02-05T19:06:10.480Z,31.23
2023-02-05T19:08:37.583Z,20.05
2023-02-05T19:11:15.948Z,25.52
2023-02-05T19:13:43.241Z,23.27
2023-02-05T19:16:16.762Z,25.73
2023-02-05T19:18:44.935Z,31.83
2023-02-05T19:21:15.919Z,24.55
2023-02-05T19:23:44.224Z,33.15
2023-02-05T19:26:13.961Z,16.10
2023-02-05T19:28:41.327Z,19.63
2023-02-05T19:31:10.141Z,15.15
2023-02-05T19:33:37.403Z,17.83
2023-02-05T19:36:05.301Z,28.17
2023-02-05T19:38:32.657Z,16.17
2023-02-05T19:41:05.512Z,20.25
2023-02-05T19:43:32.478Z,26.00
2023-02-05T19:46:06.591Z,24.05
2023-02-05T19:48:34.246Z,24.05
2023-02-05T19:51:05.335Z,18.25
2023-02-05T19:53:32.441Z,22.27
2023-02-05T19:56:06.839Z,19.67
2023-02-05T19:58:34.415Z,24.90
2023-02-05T20:01:01.597Z,31.15
2023-02-05T20:03:29.299Z,20.60
2023-02-05T20:06:00.871Z,30.50
2023-02-05T20:08:29.343Z,20.70
2023-02-05T20:11:00.397Z,30.70
2023-02-05T20:13:28.003Z,16.92
2023-02-05T20:15:55.645Z,17.67
2023-02-05T20:18:22.775Z,37.55
2023-02-05T20:20:49.942Z,24.23
2023-02-05T20:23:17.687Z,21.95
2023-02-05T20:25:52.362Z,25.38
2023-02-05T20:28:19.408Z,30.77
2023-02-05T20:31:05.136Z,29.42
2023-02-05T20:33:32.214Z,19.63
2023-02-05T20:36:03.428Z,21.52
2023-02-05T20:38:30.432Z,23.95
2023-02-05T20:40:57.560Z,23.80
2023-02-05T20:43:24.572Z,18.90
2023-02-05T20:45:51.886Z,20.50
2023-02-05T20:48:21.470Z,24.92
2023-02-05T20:50:48.731Z,26.63
2023-02-05T20:53:15.803Z,23.67
2023-02-05T20:55:42.818Z,17.38
2023-02-05T20:58:09.839Z,22.75
2023-02-05T21:00:37.638Z,17.67
2023-02-05T21:03:05.017Z,25.65
2023-02-05T21:05:32.042Z,30.48
2023-02-05T21:07:59.138Z,19.10
2023-02-05T21:10:26.158Z,19.58
2023-02-05T21:12:53.125Z,28.10
2023-02-05T21:15:20.192Z,29.75
2023-02-05T21:17:47.168Z,33.67
2023-02-05T21:20:20.211Z,27.35
2023-02-05T21:22:47.205Z,29.00
2023-02-05T21:25:14.337Z,21.52
2023-02-05T21:27:41.359Z,21.40
2023-02-05T21:30:08.666Z,24.95
2023-02-05T21:32:35.672Z,21.90
2023-02-05T21:35:02.704Z,20.02
2023-02-05T21:37:29.732Z,18.70
2023-02-05T21:40:08.906Z,24.27
2023-02-05T21:42:39.064Z,20.80
2023-02-05T21:45:06.525Z,23.88
2023-02-05T21:47:33.586Z,20.98
2023-02-05T21:50:03.172Z,22.58
2023-02-05T21:52:31.189Z,17.92
2023-02-05T21:54:58.162Z,25.85
2023-02-05T21:57:25.200Z,26.02
2023-02-05T21:59:52.464Z,21.73
2023-02-05T22:02:19.540Z,15.88
2023-02-05T22:04:46.750Z,12.98
2023-02-05T22:07:13.720Z,28.77
2023-02-05T22:09:42.069Z,24.30
2023-02-05T22:12:09.578Z,17.92
2023-02-05T22:14:36.587Z,21.45
2023-02-05T22:17:03.661Z,26.42
2023-02-05T22:19:30.676Z,19.10
2023-02-05T22:21:57.683Z,16.13
2023-02-05T22:24:24.673Z,19.63
2023-02-05T22:26:51.841Z,23.10
2023-02-05T22:29:20.216Z,13.70
2023-02-05T22:31:51.603Z,20.73
2023-02-05T22:34:18.787Z,20.65
2023-02-05T22:36:45.825Z,21.65
2023-02-05T22:39:12.990Z,21.77
2023-02-05T22:41:41.645Z,16.58
2023-02-05T22:44:09.551Z,14.13
2023-02-05T22:46:39.185Z,21.75
2023-02-05T22:49:06.380Z,21.70
2023-02-05T22:51:35.397Z,20.45
2023-02-05T22:54:02.862Z,15.82
2023-02-05T22:56:29.992Z,16.52
2023-02-05T22:58:57.148Z,18.00
2023-02-05T23:01:25.864Z,33.15
2023-02-05T23:03:53.275Z,18.48
2023-02-05T23:06:22.448Z,18.85
2023-02-05T23:08:51.328Z,16.00
2023-02-05T23:11:18.770Z,22.45
2023-02-05T23:13:45.827Z,19.10
2023-02-05T23:16:14.246Z,15.60
2023-02-05T23:18:41.878Z,13.98
2023-02-05T23:21:09.615Z,22.20
2023-02-05T23:23:36.695Z,16.92
2023-02-05T23:26:10.512Z,12.23
2023-02-05T23:28:37.565Z,11.07
2023-02-05T23:31:05.113Z,20.33
2023-02-05T23:33:32.452Z,26.58
2023-02-05T23:35:59.876Z,24.27
2023-02-05T23:38:27.456Z,20.65
2023-02-05T23:40:55.179Z,19.23
2023-02-05T23:43:22.187Z,21.50
2023-02-05T23:45:50.156Z,20.85
2023-02-05T23:48:17.555Z,22.58
2023-02-05T23:50:45.056Z,17.05
2023-02-05T23:53:12.315Z,21.45
2023-02-05T23:55:42.947Z,22.63
